sensor_id;sensor_type;location;lat;lon;timestamp;P1;durP1;ratioP1;P2;durP2;ratioP2
70459;SDS011;57920;54.796;9.430;2022-08-19T00:01:48;4.77;;;4.10;;
70459;SDS011;57920;54.796;9.430;2022-08-19T00:04:17;4.83;;;4.20;;
70459;SDS011;57920;54.796;9.430;2022-08-19T00:06:47;7.53;;;4.20;;
70459;SDS011;57920;54.796;9.430;2022-08-19T00:09:14;4.13;;;3.33;;
70459;SDS011;57920;54.796;9.430;2022-08-19T00:11:42;6.97;;;4.70;;
70459;SDS011;57920;54.796;9.430;2022-08-19T00:14:09;5.13;;;3.60;;
70459;SDS011;57920;54.796;9.430;2022-08-19T00:16:37;6.53;;;4.33;;
70459;SDS011;57920;54.796;9.430;2022-08-19T00:19:04;5.17;;;3.73;;
70459;SDS011;57920;54.796;9.430;2022-08-19T00:21:30;4.70;;;3.63;;
70459;SDS011;57920;54.796;9.430;2022-08-19T00:23:56;4.97;;;4.10;;
70459;SDS011;57920;54.796;9.430;2022-08-19T00:26:23;6.90;;;4.30;;
70459;SDS011;57920;54.796;9.430;2022-08-19T00:28:50;6.97;;;4.17;;
70459;SDS011;57920;54.796;9.430;2022-08-19T00:31:16;6.13;;;4.33;;
70459;SDS011;57920;54.796;9.430;2022-08-19T00:33:42;3.87;;;2.97;;
70459;SDS011;57920;54.796;9.430;2022-08-19T00:36:08;6.33;;;3.87;;
70459;SDS011;57920;54.796;9.430;2022-08-19T00:38:34;5.53;;;3.70;;
70459;SDS011;57920;54.796;9.430;2022-08-19T00:41:01;6.50;;;4.10;;
70459;SDS011;57920;54.796;9.430;2022-08-19T00:43:27;7.17;;;4.50;;
70459;SDS011;57920;54.796;9.430;2022-08-19T00:45:53;5.27;;;3.43;;
70459;SDS011;57920;54.796;9.430;2022-08-19T00:48:19;4.97;;;4.10;;
70459;SDS011;57920;54.796;9.430;2022-08-19T00:50:45;6.13;;;4.00;;
70459;SDS011;57920;54.796;9.430;2022-08-19T00:53:14;5.70;;;3.97;;
70459;SDS011;57920;54.796;9.430;2022-08-19T00:55:47;4.80;;;4.00;;
70459;SDS011;57920;54.796;9.430;2022-08-19T00:58:16;5.67;;;4.10;;
70459;SDS011;57920;54.796;9.430;2022-08-19T01:00:44;4.17;;;3.77;;
70459;SDS011;57920;54.796;9.430;2022-08-19T01:03:18;3.97;;;3.23;;
70459;SDS011;57920;54.796;9.430;2022-08-19T01:05:45;5.57;;;4.30;;
70459;SDS011;57920;54.796;9.430;2022-08-19T01:08:13;4.57;;;4.17;;
70459;SDS011;57920;54.796;9.430;2022-08-19T01:10:42;5.90;;;3.23;;
70459;SDS011;57920;54.796;9.430;2022-08-19T01:13:10;5.17;;;4.13;;
70459;SDS011;57920;54.796;9.430;2022-08-19T01:15:40;4.63;;;4.03;;
70459;SDS011;57920;54.796;9.430;2022-08-19T01:18:10;5.03;;;4.37;;
70459;SDS011;57920;54.796;9.430;2022-08-19T01:20:38;5.27;;;4.00;;
70459;SDS011;57920;54.796;9.430;2022-08-19T01:23:04;5.00;;;4.20;;
70459;SDS011;57920;54.796;9.430;2022-08-19T01:25:32;4.47;;;3.70;;
70459;SDS011;57920;54.796;9.430;2022-08-19T01:28:06;5.77;;;3.70;;
70459;SDS011;57920;54.796;9.430;2022-08-19T01:30:33;4.43;;;4.07;;
70459;SDS011;57920;54.796;9.430;2022-08-19T01:33:00;5.50;;;3.87;;
70459;SDS011;57920;54.796;9.430;2022-08-19T01:35:27;7.27;;;4.30;;
70459;SDS011;57920;54.796;9.430;2022-08-19T01:37:56;4.63;;;4.20;;
70459;SDS011;57920;54.796;9.430;2022-08-19T01:40:25;5.60;;;3.93;;
70459;SDS011;57920;54.796;9.430;2022-08-19T01:42:54;6.23;;;4.97;;
70459;SDS011;57920;54.796;9.430;2022-08-19T01:45:20;4.97;;;4.37;;
70459;SDS011;57920;54.796;9.430;2022-08-19T01:47:48;4.73;;;4.23;;
70459;SDS011;57920;54.796;9.430;2022-08-19T01:50:14;4.33;;;3.93;;
70459;SDS011;57920;54.796;9.430;2022-08-19T01:52:41;7.40;;;3.93;;
70459;SDS011;57920;54.796;9.430;2022-08-19T01:55:09;6.33;;;4.03;;
70459;SDS011;57920;54.796;9.430;2022-08-19T01:57:37;5.67;;;4.13;;
70459;SDS011;57920;54.796;9.430;2022-08-19T02:00:06;4.70;;;4.03;;
70459;SDS011;57920;54.796;9.430;2022-08-19T02:02:35;5.00;;;3.90;;
70459;SDS011;57920;54.796;9.430;2022-08-19T02:05:00;4.77;;;4.10;;
70459;SDS011;57920;54.796;9.430;2022-08-19T02:07:26;5.70;;;4.33;;
70459;SDS011;57920;54.796;9.430;2022-08-19T02:09:53;5.17;;;3.83;;
70459;SDS011;57920;54.796;9.430;2022-08-19T02:12:20;4.97;;;3.97;;
70459;SDS011;57920;54.796;9.430;2022-08-19T02:14:46;6.20;;;4.30;;
70459;SDS011;57920;54.796;9.430;2022-08-19T02:17:12;5.07;;;4.43;;
70459;SDS011;57920;54.796;9.430;2022-08-19T02:19:37;6.03;;;3.70;;
70459;SDS011;57920;54.796;9.430;2022-08-19T02:22:03;5.13;;;4.63;;
70459;SDS011;57920;54.796;9.430;2022-08-19T02:24:28;4.93;;;3.60;;
70459;SDS011;57920;54.796;9.430;2022-08-19T02:26:54;3.83;;;3.43;;
70459;SDS011;57920;54.796;9.430;2022-08-19T02:29:20;4.93;;;3.43;;
70459;SDS011;57920;54.796;9.430;2022-08-19T02:31:45;6.00;;;4.27;;
70459;SDS011;57920;54.796;9.430;2022-08-19T02:34:11;6.13;;;4.13;;
70459;SDS011;57920;54.796;9.430;2022-08-19T02:36:36;5.97;;;4.33;;
70459;SDS011;57920;54.796;9.430;2022-08-19T02:39:02;7.57;;;4.20;;
70459;SDS011;57920;54.796;9.430;2022-08-19T02:41:29;7.60;;;4.10;;
70459;SDS011;57920;54.796;9.430;2022-08-19T02:43:56;8.87;;;4.20;;
70459;SDS011;57920;54.796;9.430;2022-08-19T02:46:27;4.83;;;3.77;;
70459;SDS011;57920;54.796;9.430;2022-08-19T02:48:59;4.90;;;4.20;;
70459;SDS011;57920;54.796;9.430;2022-08-19T02:51:30;6.90;;;4.77;;
70459;SDS011;57920;54.796;9.430;2022-08-19T02:54:04;3.53;;;3.23;;
70459;SDS011;57920;54.796;9.430;2022-08-19T02:56:31;7.63;;;4.20;;
70459;SDS011;57920;54.796;9.430;2022-08-19T02:58:58;4.83;;;4.33;;
70459;SDS011;57920;54.796;9.430;2022-08-19T03:01:25;7.07;;;4.50;;
70459;SDS011;57920;54.796;9.430;2022-08-19T03:03:53;5.43;;;4.87;;
70459;SDS011;57920;54.796;9.430;2022-08-19T03:06:20;7.90;;;4.57;;
70459;SDS011;57920;54.796;9.430;2022-08-19T03:08:47;4.63;;;3.50;;
70459;SDS011;57920;54.796;9.430;2022-08-19T03:11:21;4.90;;;4.37;;
70459;SDS011;57920;54.796;9.430;2022-08-19T03:13:51;5.30;;;3.90;;
70459;SDS011;57920;54.796;9.430;2022-08-19T03:16:18;5.70;;;4.50;;
70459;SDS011;57920;54.796;9.430;2022-08-19T03:18:46;5.77;;;3.87;;
70459;SDS011;57920;54.796;9.430;2022-08-19T03:21:16;6.57;;;3.57;;
70459;SDS011;57920;54.796;9.430;2022-08-19T03:23:43;6.20;;;3.70;;
70459;SDS011;57920;54.796;9.430;2022-08-19T03:26:09;5.97;;;4.37;;
70459;SDS011;57920;54.796;9.430;2022-08-19T03:28:35;6.77;;;4.80;;
70459;SDS011;57920;54.796;9.430;2022-08-19T03:31:03;7.00;;;4.20;;
70459;SDS011;57920;54.796;9.430;2022-08-19T03:33:34;6.20;;;4.20;;
70459;SDS011;57920;54.796;9.430;2022-08-19T03:38:33;7.00;;;4.40;;
70459;SDS011;57920;54.796;9.430;2022-08-19T03:41:04;7.23;;;5.03;;
70459;SDS011;57920;54.796;9.430;2022-08-19T03:43:31;7.97;;;4.33;;
70459;SDS011;57920;54.796;9.430;2022-08-19T03:46:06;7.27;;;4.37;;
70459;SDS011;57920;54.796;9.430;2022-08-19T03:48:34;5.97;;;4.50;;
70459;SDS011;57920;54.796;9.430;2022-08-19T03:51:01;8.23;;;4.70;;
70459;SDS011;57920;54.796;9.430;2022-08-19T03:53:29;6.37;;;4.50;;
70459;SDS011;57920;54.796;9.430;2022-08-19T03:55:56;6.83;;;4.27;;
70459;SDS011;57920;54.796;9.430;2022-08-19T03:58:25;7.23;;;4.30;;
70459;SDS011;57920;54.796;9.430;2022-08-19T04:00:53;4.20;;;3.70;;
70459;SDS011;57920;54.796;9.430;2022-08-19T04:03:20;5.63;;;4.10;;
70459;SDS011;57920;54.796;9.430;2022-08-19T04:05:46;5.23;;;4.07;;
70459;SDS011;57920;54.796;9.430;2022-08-19T04:08:11;8.57;;;4.67;;
70459;SDS011;57920;54.796;9.430;2022-08-19T04:10:38;7.50;;;4.30;;
70459;SDS011;57920;54.796;9.430;2022-08-19T04:13:05;8.33;;;5.03;;
70459;SDS011;57920;54.796;9.430;2022-08-19T04:15:32;6.47;;;4.43;;
70459;SDS011;57920;54.796;9.430;2022-08-19T04:18:03;6.17;;;4.83;;
70459;SDS011;57920;54.796;9.430;2022-08-19T04:20:31;6.83;;;4.57;;
70459;SDS011;57920;54.796;9.430;2022-08-19T04:22:56;7.13;;;4.87;;
70459;SDS011;57920;54.796;9.430;2022-08-19T04:25:22;7.17;;;5.00;;
70459;SDS011;57920;54.796;9.430;2022-08-19T04:27:47;6.27;;;4.33;;
70459;SDS011;57920;54.796;9.430;2022-08-19T04:30:14;7.80;;;3.83;;
70459;SDS011;57920;54.796;9.430;2022-08-19T04:32:39;6.23;;;4.50;;
70459;SDS011;57920;54.796;9.430;2022-08-19T04:35:06;9.07;;;5.57;;
70459;SDS011;57920;54.796;9.430;2022-08-19T04:37:32;7.23;;;4.73;;
70459;SDS011;57920;54.796;9.430;2022-08-19T04:39:58;5.10;;;4.53;;
70459;SDS011;57920;54.796;9.430;2022-08-19T04:42:43;4.50;;;3.67;;
70459;SDS011;57920;54.796;9.430;2022-08-19T04:45:10;8.40;;;4.90;;
70459;SDS011;57920;54.796;9.430;2022-08-19T04:47:39;8.10;;;4.97;;
70459;SDS011;57920;54.796;9.430;2022-08-19T04:50:06;6.77;;;4.47;;
70459;SDS011;57920;54.796;9.430;2022-08-19T04:52:33;6.90;;;4.77;;
70459;SDS011;57920;54.796;9.430;2022-08-19T04:54:59;6.03;;;3.80;;
70459;SDS011;57920;54.796;9.430;2022-08-19T04:57:25;4.70;;;3.70;;
70459;SDS011;57920;54.796;9.430;2022-08-19T04:59:54;7.97;;;4.50;;
70459;SDS011;57920;54.796;9.430;2022-08-19T05:02:20;7.10;;;5.20;;
70459;SDS011;57920;54.796;9.430;2022-08-19T05:04:50;8.23;;;5.00;;
70459;SDS011;57920;54.796;9.430;2022-08-19T05:07:20;8.33;;;5.70;;
70459;SDS011;57920;54.796;9.430;2022-08-19T05:09:46;5.87;;;4.20;;
70459;SDS011;57920;54.796;9.430;2022-08-19T05:12:11;8.07;;;5.60;;
70459;SDS011;57920;54.796;9.430;2022-08-19T05:14:37;7.37;;;5.13;;
70459;SDS011;57920;54.796;9.430;2022-08-19T05:17:03;6.87;;;5.13;;
70459;SDS011;57920;54.796;9.430;2022-08-19T05:19:28;7.10;;;5.13;;
70459;SDS011;57920;54.796;9.430;2022-08-19T05:22:12;6.17;;;3.93;;
70459;SDS011;57920;54.796;9.430;2022-08-19T05:24:56;6.27;;;4.40;;
70459;SDS011;57920;54.796;9.430;2022-08-19T05:27:22;8.67;;;4.63;;
70459;SDS011;57920;54.796;9.430;2022-08-19T05:29:47;9.00;;;5.60;;
70459;SDS011;57920;54.796;9.430;2022-08-19T05:32:13;6.60;;;5.27;;
70459;SDS011;57920;54.796;9.430;2022-08-19T05:34:39;7.37;;;5.13;;
70459;SDS011;57920;54.796;9.430;2022-08-19T05:37:05;6.67;;;5.00;;
70459;SDS011;57920;54.796;9.430;2022-08-19T05:39:33;7.13;;;5.63;;
70459;SDS011;57920;54.796;9.430;2022-08-19T05:42:04;6.00;;;3.87;;
70459;SDS011;57920;54.796;9.430;2022-08-19T05:44:33;7.70;;;5.37;;
70459;SDS011;57920;54.796;9.430;2022-08-19T05:47:02;6.60;;;4.73;;
70459;SDS011;57920;54.796;9.430;2022-08-19T05:49:29;8.93;;;4.83;;
70459;SDS011;57920;54.796;9.430;2022-08-19T05:51:57;7.57;;;5.40;;
70459;SDS011;57920;54.796;9.430;2022-08-19T05:54:24;8.47;;;5.03;;
70459;SDS011;57920;54.796;9.430;2022-08-19T05:56:50;8.07;;;5.57;;
70459;SDS011;57920;54.796;9.430;2022-08-19T05:59:17;7.87;;;5.57;;
70459;SDS011;57920;54.796;9.430;2022-08-19T06:01:45;7.30;;;5.13;;
70459;SDS011;57920;54.796;9.430;2022-08-19T06:04:15;8.53;;;5.80;;
70459;SDS011;57920;54.796;9.430;2022-08-19T06:06:43;10.60;;;6.10;;
70459;SDS011;57920;54.796;9.430;2022-08-19T06:09:08;9.90;;;6.10;;
70459;SDS011;57920;54.796;9.430;2022-08-19T06:11:38;7.13;;;5.10;;
70459;SDS011;57920;54.796;9.430;2022-08-19T06:14:06;8.20;;;5.53;;
70459;SDS011;57920;54.796;9.430;2022-08-19T06:16:37;11.93;;;6.50;;
70459;SDS011;57920;54.796;9.430;2022-08-19T06:19:04;6.83;;;5.47;;
70459;SDS011;57920;54.796;9.430;2022-08-19T06:21:35;11.80;;;6.67;;
70459;SDS011;57920;54.796;9.430;2022-08-19T06:24:03;11.80;;;7.70;;
70459;SDS011;57920;54.796;9.430;2022-08-19T06:26:31;57.90;;;23.67;;
70459;SDS011;57920;54.796;9.430;2022-08-19T06:28:57;28.80;;;12.73;;
70459;SDS011;57920;54.796;9.430;2022-08-19T06:31:24;20.20;;;11.63;;
70459;SDS011;57920;54.796;9.430;2022-08-19T06:33:51;24.97;;;14.13;;
70459;SDS011;57920;54.796;9.430;2022-08-19T06:36:21;15.40;;;9.10;;
70459;SDS011;57920;54.796;9.430;2022-08-19T06:38:52;17.73;;;9.40;;
70459;SDS011;57920;54.796;9.430;2022-08-19T06:41:18;17.47;;;10.73;;
70459;SDS011;57920;54.796;9.430;2022-08-19T06:43:44;16.93;;;10.20;;
70459;SDS011;57920;54.796;9.430;2022-08-19T06:46:13;21.80;;;12.13;;
70459;SDS011;57920;54.796;9.430;2022-08-19T06:48:40;19.43;;;11.30;;
70459;SDS011;57920;54.796;9.430;2022-08-19T06:51:07;18.60;;;12.07;;
70459;SDS011;57920;54.796;9.430;2022-08-19T06:53:36;24.33;;;14.07;;
70459;SDS011;57920;54.796;9.430;2022-08-19T06:56:04;24.67;;;13.67;;
70459;SDS011;57920;54.796;9.430;2022-08-19T06:58:29;21.03;;;14.07;;
70459;SDS011;57920;54.796;9.430;2022-08-19T07:00:59;20.90;;;13.37;;
70459;SDS011;57920;54.796;9.430;2022-08-19T07:03:33;22.23;;;14.40;;
70459;SDS011;57920;54.796;9.430;2022-08-19T07:06:06;16.80;;;11.40;;
70459;SDS011;57920;54.796;9.430;2022-08-19T07:08:37;21.13;;;14.20;;
70459;SDS011;57920;54.796;9.430;2022-08-19T07:11:06;32.37;;;16.40;;
70459;SDS011;57920;54.796;9.430;2022-08-19T07:13:33;106.20;;;36.97;;
70459;SDS011;57920;54.796;9.430;2022-08-19T07:16:05;96.93;;;31.77;;
70459;SDS011;57920;54.796;9.430;2022-08-19T07:18:37;72.10;;;27.30;;
70459;SDS011;57920;54.796;9.430;2022-08-19T07:21:07;53.93;;;24.30;;
70459;SDS011;57920;54.796;9.430;2022-08-19T07:23:35;48.07;;;21.83;;
70459;SDS011;57920;54.796;9.430;2022-08-19T07:26:09;37.57;;;19.73;;
70459;SDS011;57920;54.796;9.430;2022-08-19T07:28:46;27.43;;;15.60;;
70459;SDS011;57920;54.796;9.430;2022-08-19T07:31:13;35.87;;;19.87;;
70459;SDS011;57920;54.796;9.430;2022-08-19T07:33:45;61.73;;;22.67;;
70459;SDS011;57920;54.796;9.430;2022-08-19T07:36:12;54.43;;;23.33;;
70459;SDS011;57920;54.796;9.430;2022-08-19T07:38:41;49.53;;;24.23;;
70459;SDS011;57920;54.796;9.430;2022-08-19T07:41:10;46.00;;;23.57;;
70459;SDS011;57920;54.796;9.430;2022-08-19T07:43:37;44.47;;;22.63;;
70459;SDS011;57920;54.796;9.430;2022-08-19T07:46:04;43.83;;;21.30;;
70459;SDS011;57920;54.796;9.430;2022-08-19T07:48:30;32.20;;;21.03;;
70459;SDS011;57920;54.796;9.430;2022-08-19T07:50:58;39.90;;;19.77;;
70459;SDS011;57920;54.796;9.430;2022-08-19T07:53:26;29.07;;;16.67;;
70459;SDS011;57920;54.796;9.430;2022-08-19T07:55:53;35.40;;;18.03;;
70459;SDS011;57920;54.796;9.430;2022-08-19T07:58:19;46.43;;;22.83;;
70459;SDS011;57920;54.796;9.430;2022-08-19T08:00:48;48.23;;;21.90;;
70459;SDS011;57920;54.796;9.430;2022-08-19T08:03:15;44.23;;;20.80;;
70459;SDS011;57920;54.796;9.430;2022-08-19T08:05:43;35.60;;;18.27;;
70459;SDS011;57920;54.796;9.430;2022-08-19T08:08:27;24.23;;;15.20;;
70459;SDS011;57920;54.796;9.430;2022-08-19T08:11:12;22.03;;;13.27;;
70459;SDS011;57920;54.796;9.430;2022-08-19T08:13:39;26.67;;;16.03;;
70459;SDS011;57920;54.796;9.430;2022-08-19T08:16:06;27.47;;;16.90;;
70459;SDS011;57920;54.796;9.430;2022-08-19T08:18:32;30.83;;;17.93;;
70459;SDS011;57920;54.796;9.430;2022-08-19T08:20:59;24.13;;;14.47;;
70459;SDS011;57920;54.796;9.430;2022-08-19T08:23:25;25.23;;;15.33;;
70459;SDS011;57920;54.796;9.430;2022-08-19T08:25:51;19.23;;;12.87;;
70459;SDS011;57920;54.796;9.430;2022-08-19T08:28:19;24.97;;;15.30;;
70459;SDS011;57920;54.796;9.430;2022-08-19T08:30:46;17.47;;;12.77;;
70459;SDS011;57920;54.796;9.430;2022-08-19T08:33:13;23.17;;;14.27;;
70459;SDS011;57920;54.796;9.430;2022-08-19T08:35:41;23.37;;;14.77;;
70459;SDS011;57920;54.796;9.430;2022-08-19T08:38:07;19.97;;;14.10;;
70459;SDS011;57920;54.796;9.430;2022-08-19T08:40:43;19.33;;;12.13;;
70459;SDS011;57920;54.796;9.430;2022-08-19T08:43:28;18.43;;;12.93;;
70459;SDS011;57920;54.796;9.430;2022-08-19T08:54:43;15.00;;;9.73;;
70459;SDS011;57920;54.796;9.430;2022-08-19T08:57:13;16.57;;;11.40;;
70459;SDS011;57920;54.796;9.430;2022-08-19T08:59:53;17.17;;;11.80;;
70459;SDS011;57920;54.796;9.430;2022-08-19T09:02:21;16.23;;;11.33;;
70459;SDS011;57920;54.796;9.430;2022-08-19T09:04:47;15.63;;;11.17;;
70459;SDS011;57920;54.796;9.430;2022-08-19T09:09:56;17.30;;;11.30;;
70459;SDS011;57920;54.796;9.430;2022-08-19T09:15:33;12.43;;;8.90;;
70459;SDS011;57920;54.796;9.430;2022-08-19T09:18:03;17.07;;;10.03;;
70459;SDS011;57920;54.796;9.430;2022-08-19T09:20:29;17.03;;;11.23;;
70459;SDS011;57920;54.796;9.430;2022-08-19T09:22:56;14.37;;;10.23;;
70459;SDS011;57920;54.796;9.430;2022-08-19T09:25:23;16.83;;;10.33;;
70459;SDS011;57920;54.796;9.430;2022-08-19T09:27:50;14.17;;;9.83;;
70459;SDS011;57920;54.796;9.430;2022-08-19T09:30:25;15.00;;;10.67;;
70459;SDS011;57920;54.796;9.430;2022-08-19T09:32:52;15.43;;;11.13;;
70459;SDS011;57920;54.796;9.430;2022-08-19T09:35:20;15.30;;;11.50;;
70459;SDS011;57920;54.796;9.430;2022-08-19T09:37:47;12.53;;;9.43;;
70459;SDS011;57920;54.796;9.430;2022-08-19T09:40:14;16.07;;;11.17;;
70459;SDS011;57920;54.796;9.430;2022-08-19T09:42:40;21.57;;;12.63;;
70459;SDS011;57920;54.796;9.430;2022-08-19T09:45:08;18.57;;;11.97;;
70459;SDS011;57920;54.796;9.430;2022-08-19T09:47:34;23.03;;;12.63;;
70459;SDS011;57920;54.796;9.430;2022-08-19T09:50:03;17.97;;;11.50;;
70459;SDS011;57920;54.796;9.430;2022-08-19T09:52:33;14.20;;;9.50;;
70459;SDS011;57920;54.796;9.430;2022-08-19T09:55:01;20.47;;;11.40;;
70459;SDS011;57920;54.796;9.430;2022-08-19T09:57:28;17.97;;;12.00;;
70459;SDS011;57920;54.796;9.430;2022-08-19T09:59:53;21.30;;;11.63;;
70459;SDS011;57920;54.796;9.430;2022-08-19T10:02:19;53.70;;;16.23;;
70459;SDS011;57920;54.796;9.430;2022-08-19T10:04:45;62.97;;;19.50;;
70459;SDS011;57920;54.796;9.430;2022-08-19T10:07:30;24.10;;;11.97;;
70459;SDS011;57920;54.796;9.430;2022-08-19T10:09:56;32.57;;;13.93;;
70459;SDS011;57920;54.796;9.430;2022-08-19T10:12:21;27.33;;;14.60;;
70459;SDS011;57920;54.796;9.430;2022-08-19T10:14:47;58.93;;;21.63;;
70459;SDS011;57920;54.796;9.430;2022-08-19T10:17:13;39.27;;;16.83;;
70459;SDS011;57920;54.796;9.430;2022-08-19T10:19:39;37.37;;;17.67;;
70459;SDS011;57920;54.796;9.430;2022-08-19T10:22:06;32.43;;;16.73;;
70459;SDS011;57920;54.796;9.430;2022-08-19T10:24:32;119.27;;;70.97;;
70459;SDS011;57920;54.796;9.430;2022-08-19T10:26:59;528.23;;;165.07;;
70459;SDS011;57920;54.796;9.430;2022-08-19T10:29:28;195.80;;;74.23;;
70459;SDS011;57920;54.796;9.430;2022-08-19T10:31:54;253.13;;;88.03;;
70459;SDS011;57920;54.796;9.430;2022-08-19T10:34:21;238.90;;;81.93;;
70459;SDS011;57920;54.796;9.430;2022-08-19T10:36:47;171.00;;;58.77;;
70459;SDS011;57920;54.796;9.430;2022-08-19T10:39:13;230.60;;;66.93;;
70459;SDS011;57920;54.796;9.430;2022-08-19T10:41:39;198.80;;;63.83;;
70459;SDS011;57920;54.796;9.430;2022-08-19T10:44:08;176.90;;;62.93;;
70459;SDS011;57920;54.796;9.430;2022-08-19T10:46:37;169.30;;;57.00;;
70459;SDS011;57920;54.796;9.430;2022-08-19T10:49:06;150.27;;;56.03;;
70459;SDS011;57920;54.796;9.430;2022-08-19T10:51:34;110.60;;;42.90;;
70459;SDS011;57920;54.796;9.430;2022-08-19T10:54:18;89.73;;;35.13;;
70459;SDS011;57920;54.796;9.430;2022-08-19T10:56:44;83.07;;;36.17;;
70459;SDS011;57920;54.796;9.430;2022-08-19T10:59:16;70.80;;;32.10;;
70459;SDS011;57920;54.796;9.430;2022-08-19T11:01:45;75.97;;;36.17;;
70459;SDS011;57920;54.796;9.430;2022-08-19T11:04:12;81.53;;;31.30;;
70459;SDS011;57920;54.796;9.430;2022-08-19T11:06:39;68.43;;;31.37;;
70459;SDS011;57920;54.796;9.430;2022-08-19T11:09:06;47.63;;;25.27;;
70459;SDS011;57920;54.796;9.430;2022-08-19T11:11:33;55.20;;;29.97;;
70459;SDS011;57920;54.796;9.430;2022-08-19T11:14:04;58.00;;;24.73;;
70459;SDS011;57920;54.796;9.430;2022-08-19T11:16:30;59.30;;;28.30;;
70459;SDS011;57920;54.796;9.430;2022-08-19T11:18:57;163.40;;;57.63;;
70459;SDS011;57920;54.796;9.430;2022-08-19T11:21:34;210.30;;;73.03;;
70459;SDS011;57920;54.796;9.430;2022-08-19T11:24:10;167.80;;;57.77;;
70459;SDS011;57920;54.796;9.430;2022-08-19T11:26:38;203.53;;;72.20;;
70459;SDS011;57920;54.796;9.430;2022-08-19T11:29:05;199.83;;;70.60;;
70459;SDS011;57920;54.796;9.430;2022-08-19T11:31:36;197.70;;;72.87;;
70459;SDS011;57920;54.796;9.430;2022-08-19T11:34:04;188.60;;;72.13;;
70459;SDS011;57920;54.796;9.430;2022-08-19T11:36:31;173.00;;;65.83;;
70459;SDS011;57920;54.796;9.430;2022-08-19T11:38:57;148.73;;;62.57;;
70459;SDS011;57920;54.796;9.430;2022-08-19T11:41:23;168.17;;;53.00;;
70459;SDS011;57920;54.796;9.430;2022-08-19T11:43:50;220.43;;;65.07;;
70459;SDS011;57920;54.796;9.430;2022-08-19T11:46:19;189.90;;;59.60;;
70459;SDS011;57920;54.796;9.430;2022-08-19T11:48:46;145.43;;;57.27;;
70459;SDS011;57920;54.796;9.430;2022-08-19T11:51:25;122.70;;;45.00;;
70459;SDS011;57920;54.796;9.430;2022-08-19T11:53:55;126.83;;;49.00;;
70459;SDS011;57920;54.796;9.430;2022-08-19T11:56:23;118.97;;;48.77;;
70459;SDS011;57920;54.796;9.430;2022-08-19T11:58:50;118.60;;;48.20;;
70459;SDS011;57920;54.796;9.430;2022-08-19T12:01:17;113.77;;;45.60;;
70459;SDS011;57920;54.796;9.430;2022-08-19T12:03:45;115.27;;;46.10;;
70459;SDS011;57920;54.796;9.430;2022-08-19T12:06:14;87.17;;;39.73;;
70459;SDS011;57920;54.796;9.430;2022-08-19T12:08:42;113.43;;;47.43;;
70459;SDS011;57920;54.796;9.430;2022-08-19T12:11:11;98.37;;;42.93;;
70459;SDS011;57920;54.796;9.430;2022-08-19T12:13:38;103.23;;;42.67;;
70459;SDS011;57920;54.796;9.430;2022-08-19T12:16:12;91.40;;;41.00;;
70459;SDS011;57920;54.796;9.430;2022-08-19T12:18:40;73.87;;;33.33;;
70459;SDS011;57920;54.796;9.430;2022-08-19T12:21:08;105.93;;;42.93;;
70459;SDS011;57920;54.796;9.430;2022-08-19T12:23:36;72.83;;;31.93;;
70459;SDS011;57920;54.796;9.430;2022-08-19T12:26:02;87.63;;;39.03;;
70459;SDS011;57920;54.796;9.430;2022-08-19T12:28:28;83.30;;;39.80;;
70459;SDS011;57920;54.796;9.430;2022-08-19T12:30:55;72.63;;;38.73;;
70459;SDS011;57920;54.796;9.430;2022-08-19T12:33:21;79.67;;;38.27;;
70459;SDS011;57920;54.796;9.430;2022-08-19T12:35:50;63.50;;;31.33;;
70459;SDS011;57920;54.796;9.430;2022-08-19T12:38:16;58.17;;;30.37;;
70459;SDS011;57920;54.796;9.430;2022-08-19T12:40:44;74.30;;;37.13;;
70459;SDS011;57920;54.796;9.430;2022-08-19T12:43:13;70.30;;;36.53;;
70459;SDS011;57920;54.796;9.430;2022-08-19T12:45:41;76.03;;;36.97;;
70459;SDS011;57920;54.796;9.430;2022-08-19T12:48:10;68.33;;;36.33;;
70459;SDS011;57920;54.796;9.430;2022-08-19T12:50:38;73.87;;;35.93;;
70459;SDS011;57920;54.796;9.430;2022-08-19T12:53:04;67.30;;;35.70;;
70459;SDS011;57920;54.796;9.430;2022-08-19T12:55:30;65.60;;;33.87;;
70459;SDS011;57920;54.796;9.430;2022-08-19T12:57:56;59.93;;;29.20;;
70459;SDS011;57920;54.796;9.430;2022-08-19T13:00:21;58.10;;;32.83;;
70459;SDS011;57920;54.796;9.430;2022-08-19T13:02:49;63.40;;;33.07;;
70459;SDS011;57920;54.796;9.430;2022-08-19T13:05:17;57.63;;;31.67;;
70459;SDS011;57920;54.796;9.430;2022-08-19T13:07:48;47.93;;;26.03;;
70459;SDS011;57920;54.796;9.430;2022-08-19T13:10:16;63.17;;;31.80;;
70459;SDS011;57920;54.796;9.430;2022-08-19T13:12:44;55.63;;;31.20;;
70459;SDS011;57920;54.796;9.430;2022-08-19T13:15:12;58.83;;;32.00;;
70459;SDS011;57920;54.796;9.430;2022-08-19T13:17:38;51.97;;;31.67;;
70459;SDS011;57920;54.796;9.430;2022-08-19T13:20:05;46.40;;;30.57;;
70459;SDS011;57920;54.796;9.430;2022-08-19T13:22:33;50.30;;;30.27;;
70459;SDS011;57920;54.796;9.430;2022-08-19T13:25:00;50.33;;;30.63;;
70459;SDS011;57920;54.796;9.430;2022-08-19T13:27:26;47.63;;;29.67;;
70459;SDS011;57920;54.796;9.430;2022-08-19T13:29:52;51.77;;;30.20;;
70459;SDS011;57920;54.796;9.430;2022-08-19T13:32:36;39.57;;;25.63;;
70459;SDS011;57920;54.796;9.430;2022-08-19T13:35:20;41.40;;;23.53;;
70459;SDS011;57920;54.796;9.430;2022-08-19T13:37:45;49.37;;;28.10;;
70459;SDS011;57920;54.796;9.430;2022-08-19T13:40:13;47.00;;;27.33;;
70459;SDS011;57920;54.796;9.430;2022-08-19T13:42:43;45.30;;;27.07;;
70459;SDS011;57920;54.796;9.430;2022-08-19T13:45:11;41.20;;;24.20;;
70459;SDS011;57920;54.796;9.430;2022-08-19T13:47:37;48.37;;;28.07;;
70459;SDS011;57920;54.796;9.430;2022-08-19T13:50:12;52.33;;;27.57;;
70459;SDS011;57920;54.796;9.430;2022-08-19T13:52:40;34.30;;;21.63;;
70459;SDS011;57920;54.796;9.430;2022-08-19T13:55:07;33.00;;;22.27;;
70459;SDS011;57920;54.796;9.430;2022-08-19T13:57:34;47.47;;;25.57;;
70459;SDS011;57920;54.796;9.430;2022-08-19T14:00:00;43.93;;;24.77;;
70459;SDS011;57920;54.796;9.430;2022-08-19T14:02:27;34.87;;;20.93;;
70459;SDS011;57920;54.796;9.430;2022-08-19T14:04:53;38.67;;;24.87;;
70459;SDS011;57920;54.796;9.430;2022-08-19T14:07:19;41.13;;;25.13;;
70459;SDS011;57920;54.796;9.430;2022-08-19T14:09:46;37.33;;;25.57;;
70459;SDS011;57920;54.796;9.430;2022-08-19T14:12:11;38.20;;;24.07;;
70459;SDS011;57920;54.796;9.430;2022-08-19T14:14:37;44.07;;;23.90;;
70459;SDS011;57920;54.796;9.430;2022-08-19T14:17:06;39.00;;;23.83;;
70459;SDS011;57920;54.796;9.430;2022-08-19T14:19:33;35.97;;;23.27;;
70459;SDS011;57920;54.796;9.430;2022-08-19T14:21:58;32.17;;;19.57;;
70459;SDS011;57920;54.796;9.430;2022-08-19T14:24:24;29.17;;;18.83;;
70459;SDS011;57920;54.796;9.430;2022-08-19T14:26:50;33.03;;;19.33;;
70459;SDS011;57920;54.796;9.430;2022-08-19T14:29:15;42.43;;;23.57;;
70459;SDS011;57920;54.796;9.430;2022-08-19T14:31:41;36.60;;;23.13;;
70459;SDS011;57920;54.796;9.430;2022-08-19T14:34:09;34.07;;;21.43;;
70459;SDS011;57920;54.796;9.430;2022-08-19T14:36:35;34.90;;;21.37;;
70459;SDS011;57920;54.796;9.430;2022-08-19T14:39:01;34.50;;;20.00;;
70459;SDS011;57920;54.796;9.430;2022-08-19T14:41:27;39.33;;;22.90;;
70459;SDS011;57920;54.796;9.430;2022-08-19T14:43:55;33.87;;;20.93;;
70459;SDS011;57920;54.796;9.430;2022-08-19T14:46:22;32.03;;;21.30;;
70459;SDS011;57920;54.796;9.430;2022-08-19T14:48:50;33.07;;;20.87;;
70459;SDS011;57920;54.796;9.430;2022-08-19T14:51:16;36.07;;;21.40;;
70459;SDS011;57920;54.796;9.430;2022-08-19T14:53:44;33.40;;;21.00;;